sensor_id;sensor_type;location;lat;lon;timestamp;P1;durP1;ratioP1;P2;durP2;ratioP2
63499;SDS011;49654;51.142;14.924;2022-12-05T00:00:50;81.40;;;43.30;;
63499;SDS011;49654;51.142;14.924;2022-12-05T00:03:20;81.73;;;44.60;;
63499;SDS011;49654;51.142;14.924;2022-12-05T00:05:48;84.17;;;45.20;;
63499;SDS011;49654;51.142;14.924;2022-12-05T00:08:15;78.00;;;44.20;;
63499;SDS011;49654;51.142;14.924;2022-12-05T00:10:43;81.30;;;44.00;;
63499;SDS011;49654;51.142;14.924;2022-12-05T00:13:10;81.93;;;44.00;;
63499;SDS011;49654;51.142;14.924;2022-12-05T00:15:37;82.80;;;44.63;;
63499;SDS011;49654;51.142;14.924;2022-12-05T00:18:05;80.73;;;44.30;;
63499;SDS011;49654;51.142;14.924;2022-12-05T00:20:34;81.07;;;43.67;;
63499;SDS011;49654;51.142;14.924;2022-12-05T00:23:01;78.77;;;43.10;;
63499;SDS011;49654;51.142;14.924;2022-12-05T00:25:28;77.50;;;42.60;;
63499;SDS011;49654;51.142;14.924;2022-12-05T00:27:55;74.40;;;42.23;;
63499;SDS011;49654;51.142;14.924;2022-12-05T00:30:22;75.17;;;41.50;;
63499;SDS011;49654;51.142;14.924;2022-12-05T00:32:49;78.47;;;41.70;;
63499;SDS011;49654;51.142;14.924;2022-12-05T00:35:16;70.70;;;41.00;;
63499;SDS011;49654;51.142;14.924;2022-12-05T00:37:44;81.30;;;43.60;;
63499;SDS011;49654;51.142;14.924;2022-12-05T00:40:11;74.00;;;42.23;;
63499;SDS011;49654;51.142;14.924;2022-12-05T00:42:39;74.93;;;42.13;;
63499;SDS011;49654;51.142;14.924;2022-12-05T00:45:06;76.33;;;41.03;;
63499;SDS011;49654;51.142;14.924;2022-12-05T00:47:34;71.33;;;39.97;;
63499;SDS011;49654;51.142;14.924;2022-12-05T00:50:01;72.73;;;40.43;;
63499;SDS011;49654;51.142;14.924;2022-12-05T00:52:29;71.40;;;40.43;;
63499;SDS011;49654;51.142;14.924;2022-12-05T00:54:57;70.43;;;39.07;;
63499;SDS011;49654;51.142;14.924;2022-12-05T00:57:24;68.57;;;40.07;;
63499;SDS011;49654;51.142;14.924;2022-12-05T00:59:51;66.70;;;39.37;;
63499;SDS011;49654;51.142;14.924;2022-12-05T01:02:18;71.63;;;39.30;;
63499;SDS011;49654;51.142;14.924;2022-12-05T01:04:46;65.93;;;37.70;;
63499;SDS011;49654;51.142;14.924;2022-12-05T01:07:13;73.50;;;40.67;;
63499;SDS011;49654;51.142;14.924;2022-12-05T01:09:40;73.37;;;40.70;;
63499;SDS011;49654;51.142;14.924;2022-12-05T01:12:08;76.73;;;41.97;;
63499;SDS011;49654;51.142;14.924;2022-12-05T01:14:35;73.83;;;41.67;;
63499;SDS011;49654;51.142;14.924;2022-12-05T01:17:02;78.77;;;42.10;;
63499;SDS011;49654;51.142;14.924;2022-12-05T01:19:30;78.33;;;43.13;;
63499;SDS011;49654;51.142;14.924;2022-12-05T01:21:58;72.77;;;41.43;;
63499;SDS011;49654;51.142;14.924;2022-12-05T01:24:25;77.83;;;42.13;;
63499;SDS011;49654;51.142;14.924;2022-12-05T01:26:54;72.37;;;41.10;;
63499;SDS011;49654;51.142;14.924;2022-12-05T01:29:23;72.90;;;41.57;;
63499;SDS011;49654;51.142;14.924;2022-12-05T01:31:51;72.30;;;40.80;;
63499;SDS011;49654;51.142;14.924;2022-12-05T01:34:19;69.20;;;38.83;;
63499;SDS011;49654;51.142;14.924;2022-12-05T01:36:46;72.10;;;40.83;;
63499;SDS011;49654;51.142;14.924;2022-12-05T01:39:14;71.17;;;41.10;;
63499;SDS011;49654;51.142;14.924;2022-12-05T01:41:43;85.50;;;46.50;;
63499;SDS011;49654;51.142;14.924;2022-12-05T01:47:16;82.80;;;44.50;;
63499;SDS011;49654;51.142;14.924;2022-12-05T01:49:45;148.17;;;67.00;;
63499;SDS011;49654;51.142;14.924;2022-12-05T01:52:13;97.23;;;50.80;;
63499;SDS011;49654;51.142;14.924;2022-12-05T01:54:42;113.47;;;57.57;;
63499;SDS011;49654;51.142;14.924;2022-12-05T01:57:12;77.47;;;41.37;;
63499;SDS011;49654;51.142;14.924;2022-12-05T01:59:43;70.10;;;41.30;;
63499;SDS011;49654;51.142;14.924;2022-12-05T02:02:12;72.53;;;40.17;;
63499;SDS011;49654;51.142;14.924;2022-12-05T02:04:42;66.70;;;37.43;;
63499;SDS011;49654;51.142;14.924;2022-12-05T02:07:15;65.30;;;38.60;;
63499;SDS011;49654;51.142;14.924;2022-12-05T02:09:43;67.60;;;37.33;;
63499;SDS011;49654;51.142;14.924;2022-12-05T02:12:12;65.37;;;37.43;;
63499;SDS011;49654;51.142;14.924;2022-12-05T02:14:40;66.20;;;37.77;;
63499;SDS011;49654;51.142;14.924;2022-12-05T02:17:13;70.00;;;37.80;;
63499;SDS011;49654;51.142;14.924;2022-12-05T02:19:53;68.60;;;38.53;;
63499;SDS011;49654;51.142;14.924;2022-12-05T02:22:51;68.47;;;37.63;;
63499;SDS011;49654;51.142;14.924;2022-12-05T02:25:45;68.60;;;38.07;;
63499;SDS011;49654;51.142;14.924;2022-12-05T02:31:24;68.90;;;37.50;;
63499;SDS011;49654;51.142;14.924;2022-12-05T02:33:58;64.10;;;37.40;;
63499;SDS011;49654;51.142;14.924;2022-12-05T02:36:31;66.80;;;37.50;;
63499;SDS011;49654;51.142;14.924;2022-12-05T02:39:08;64.57;;;37.00;;
63499;SDS011;49654;51.142;14.924;2022-12-05T02:41:44;65.13;;;37.97;;
63499;SDS011;49654;51.142;14.924;2022-12-05T02:44:16;69.73;;;38.20;;
63499;SDS011;49654;51.142;14.924;2022-12-05T02:46:49;65.80;;;38.77;;
63499;SDS011;49654;51.142;14.924;2022-12-05T02:49:20;66.23;;;37.13;;
63499;SDS011;49654;51.142;14.924;2022-12-05T02:51:51;65.10;;;37.37;;
63499;SDS011;49654;51.142;14.924;2022-12-05T02:54:22;66.13;;;36.80;;
63499;SDS011;49654;51.142;14.924;2022-12-05T02:56:51;64.50;;;37.13;;
63499;SDS011;49654;51.142;14.924;2022-12-05T02:59:20;64.47;;;36.67;;
63499;SDS011;49654;51.142;14.924;2022-12-05T03:01:47;62.33;;;35.20;;
63499;SDS011;49654;51.142;14.924;2022-12-05T03:04:16;68.53;;;37.53;;
63499;SDS011;49654;51.142;14.924;2022-12-05T03:06:45;64.40;;;36.17;;
63499;SDS011;49654;51.142;14.924;2022-12-05T03:09:18;65.73;;;35.60;;
63499;SDS011;49654;51.142;14.924;2022-12-05T03:11:50;66.53;;;36.17;;
63499;SDS011;49654;51.142;14.924;2022-12-05T03:14:21;62.63;;;36.20;;
63499;SDS011;49654;51.142;14.924;2022-12-05T03:16:55;66.30;;;35.60;;
63499;SDS011;49654;51.142;14.924;2022-12-05T03:19:29;66.63;;;35.80;;
63499;SDS011;49654;51.142;14.924;2022-12-05T03:22:01;60.47;;;34.47;;
63499;SDS011;49654;51.142;14.924;2022-12-05T03:24:32;63.13;;;35.10;;
63499;SDS011;49654;51.142;14.924;2022-12-05T03:27:03;62.70;;;35.23;;
63499;SDS011;49654;51.142;14.924;2022-12-05T03:29:38;63.93;;;36.53;;
63499;SDS011;49654;51.142;14.924;2022-12-05T03:32:15;61.93;;;35.70;;
63499;SDS011;49654;51.142;14.924;2022-12-05T03:34:50;61.57;;;33.87;;
63499;SDS011;49654;51.142;14.924;2022-12-05T03:37:29;61.93;;;34.03;;
63499;SDS011;49654;51.142;14.924;2022-12-05T03:40:04;61.97;;;35.87;;
63499;SDS011;49654;51.142;14.924;2022-12-05T03:42:35;65.50;;;35.83;;
63499;SDS011;49654;51.142;14.924;2022-12-05T03:45:08;61.23;;;34.93;;
63499;SDS011;49654;51.142;14.924;2022-12-05T03:47:39;62.20;;;34.07;;
63499;SDS011;49654;51.142;14.924;2022-12-05T03:50:12;61.77;;;35.43;;
63499;SDS011;49654;51.142;14.924;2022-12-05T03:52:45;60.77;;;33.77;;
63499;SDS011;49654;51.142;14.924;2022-12-05T03:55:15;61.10;;;34.53;;
63499;SDS011;49654;51.142;14.924;2022-12-05T03:57:43;58.83;;;32.93;;
63499;SDS011;49654;51.142;14.924;2022-12-05T04:00:15;60.93;;;33.07;;
63499;SDS011;49654;51.142;14.924;2022-12-05T04:02:45;56.60;;;33.67;;
63499;SDS011;49654;51.142;14.924;2022-12-05T04:05:18;57.17;;;33.33;;
63499;SDS011;49654;51.142;14.924;2022-12-05T04:07:50;57.30;;;33.03;;
63499;SDS011;49654;51.142;14.924;2022-12-05T04:10:22;56.83;;;33.87;;
63499;SDS011;49654;51.142;14.924;2022-12-05T04:12:53;56.23;;;31.60;;
63499;SDS011;49654;51.142;14.924;2022-12-05T04:15:25;55.47;;;31.13;;
63499;SDS011;49654;51.142;14.924;2022-12-05T04:18:16;56.93;;;31.07;;
63499;SDS011;49654;51.142;14.924;2022-12-05T04:20:47;54.73;;;32.13;;
63499;SDS011;49654;51.142;14.924;2022-12-05T04:23:32;52.37;;;30.27;;
63499;SDS011;49654;51.142;14.924;2022-12-05T04:26:01;48.63;;;29.53;;
63499;SDS011;49654;51.142;14.924;2022-12-05T04:28:33;49.13;;;29.03;;
63499;SDS011;49654;51.142;14.924;2022-12-05T04:31:05;47.23;;;28.07;;
63499;SDS011;49654;51.142;14.924;2022-12-05T04:33:39;52.93;;;30.80;;
63499;SDS011;49654;51.142;14.924;2022-12-05T04:36:12;48.83;;;28.97;;
63499;SDS011;49654;51.142;14.924;2022-12-05T04:38:44;47.83;;;28.63;;
63499;SDS011;49654;51.142;14.924;2022-12-05T04:41:16;50.53;;;30.00;;
63499;SDS011;49654;51.142;14.924;2022-12-05T04:43:49;53.87;;;30.60;;
63499;SDS011;49654;51.142;14.924;2022-12-05T04:46:17;48.10;;;30.13;;
63499;SDS011;49654;51.142;14.924;2022-12-05T04:48:48;55.27;;;30.63;;
63499;SDS011;49654;51.142;14.924;2022-12-05T04:51:21;51.23;;;29.80;;
63499;SDS011;49654;51.142;14.924;2022-12-05T04:53:52;51.77;;;29.87;;
63499;SDS011;49654;51.142;14.924;2022-12-05T04:56:22;53.40;;;31.20;;
63499;SDS011;49654;51.142;14.924;2022-12-05T04:58:53;50.47;;;29.20;;
63499;SDS011;49654;51.142;14.924;2022-12-05T05:01:21;50.77;;;30.33;;
63499;SDS011;49654;51.142;14.924;2022-12-05T05:03:53;49.83;;;29.50;;
63499;SDS011;49654;51.142;14.924;2022-12-05T05:06:26;49.00;;;28.57;;
63499;SDS011;49654;51.142;14.924;2022-12-05T05:08:56;52.27;;;29.03;;
63499;SDS011;49654;51.142;14.924;2022-12-05T05:11:24;54.77;;;30.00;;
63499;SDS011;49654;51.142;14.924;2022-12-05T05:13:52;56.60;;;32.23;;
63499;SDS011;49654;51.142;14.924;2022-12-05T05:16:20;60.50;;;34.90;;
63499;SDS011;49654;51.142;14.924;2022-12-05T05:18:49;60.50;;;35.53;;
63499;SDS011;49654;51.142;14.924;2022-12-05T05:21:18;57.57;;;31.90;;
63499;SDS011;49654;51.142;14.924;2022-12-05T05:23:48;61.13;;;32.97;;
63499;SDS011;49654;51.142;14.924;2022-12-05T05:26:15;54.03;;;31.87;;
63499;SDS011;49654;51.142;14.924;2022-12-05T05:28:43;59.97;;;34.97;;
63499;SDS011;49654;51.142;14.924;2022-12-05T05:31:10;58.23;;;33.77;;
63499;SDS011;49654;51.142;14.924;2022-12-05T05:33:38;58.80;;;31.20;;
63499;SDS011;49654;51.142;14.924;2022-12-05T05:36:06;53.07;;;31.30;;
63499;SDS011;49654;51.142;14.924;2022-12-05T05:38:35;57.47;;;31.17;;
63499;SDS011;49654;51.142;14.924;2022-12-05T05:41:04;53.90;;;30.70;;
63499;SDS011;49654;51.142;14.924;2022-12-05T05:43:32;54.57;;;31.43;;
63499;SDS011;49654;51.142;14.924;2022-12-05T05:46:01;60.30;;;33.80;;
63499;SDS011;49654;51.142;14.924;2022-12-05T05:48:29;59.93;;;33.37;;
63499;SDS011;49654;51.142;14.924;2022-12-05T05:50:57;59.00;;;33.03;;
63499;SDS011;49654;51.142;14.924;2022-12-05T05:53:24;60.10;;;32.30;;
63499;SDS011;49654;51.142;14.924;2022-12-05T05:55:51;65.00;;;36.83;;
63499;SDS011;49654;51.142;14.924;2022-12-05T05:58:20;58.77;;;32.90;;
63499;SDS011;49654;51.142;14.924;2022-12-05T06:00:48;59.30;;;32.70;;
63499;SDS011;49654;51.142;14.924;2022-12-05T06:03:15;63.80;;;37.23;;
63499;SDS011;49654;51.142;14.924;2022-12-05T06:05:42;61.27;;;33.30;;
63499;SDS011;49654;51.142;14.924;2022-12-05T06:08:09;62.87;;;33.60;;
63499;SDS011;49654;51.142;14.924;2022-12-05T06:10:37;54.13;;;32.80;;
63499;SDS011;49654;51.142;14.924;2022-12-05T06:13:04;54.70;;;32.23;;
63499;SDS011;49654;51.142;14.924;2022-12-05T06:15:32;57.97;;;33.07;;
63499;SDS011;49654;51.142;14.924;2022-12-05T06:17:59;57.63;;;33.50;;
63499;SDS011;49654;51.142;14.924;2022-12-05T06:20:26;55.90;;;31.23;;
63499;SDS011;49654;51.142;14.924;2022-12-05T06:22:53;58.87;;;32.97;;
63499;SDS011;49654;51.142;14.924;2022-12-05T06:25:20;58.37;;;31.00;;
63499;SDS011;49654;51.142;14.924;2022-12-05T06:27:47;54.63;;;31.47;;
63499;SDS011;49654;51.142;14.924;2022-12-05T06:30:16;52.23;;;29.87;;
63499;SDS011;49654;51.142;14.924;2022-12-05T06:32:44;56.87;;;33.03;;
63499;SDS011;49654;51.142;14.924;2022-12-05T06:35:11;57.93;;;32.63;;
63499;SDS011;49654;51.142;14.924;2022-12-05T06:37:40;75.60;;;42.57;;
63499;SDS011;49654;51.142;14.924;2022-12-05T06:40:08;68.97;;;40.97;;
63499;SDS011;49654;51.142;14.924;2022-12-05T06:42:36;59.13;;;33.53;;
63499;SDS011;49654;51.142;14.924;2022-12-05T06:45:03;61.13;;;36.53;;
63499;SDS011;49654;51.142;14.924;2022-12-05T06:47:31;61.63;;;35.30;;
63499;SDS011;49654;51.142;14.924;2022-12-05T06:50:00;55.77;;;32.23;;
63499;SDS011;49654;51.142;14.924;2022-12-05T06:52:27;57.80;;;33.77;;
63499;SDS011;49654;51.142;14.924;2022-12-05T06:54:54;55.83;;;33.27;;
63499;SDS011;49654;51.142;14.924;2022-12-05T06:57:21;55.23;;;31.93;;
63499;SDS011;49654;51.142;14.924;2022-12-05T06:59:48;59.33;;;32.83;;
63499;SDS011;49654;51.142;14.924;2022-12-05T07:02:15;57.37;;;32.80;;
63499;SDS011;49654;51.142;14.924;2022-12-05T07:04:41;62.93;;;34.23;;
63499;SDS011;49654;51.142;14.924;2022-12-05T07:07:10;53.00;;;31.13;;
63499;SDS011;49654;51.142;14.924;2022-12-05T07:09:38;58.33;;;32.73;;
63499;SDS011;49654;51.142;14.924;2022-12-05T07:12:18;55.27;;;30.73;;
63499;SDS011;49654;51.142;14.924;2022-12-05T07:14:45;59.83;;;33.53;;
63499;SDS011;49654;51.142;14.924;2022-12-05T07:17:13;56.17;;;31.97;;
63499;SDS011;49654;51.142;14.924;2022-12-05T07:19:40;59.60;;;32.97;;
63499;SDS011;49654;51.142;14.924;2022-12-05T07:22:07;57.03;;;32.87;;
63499;SDS011;49654;51.142;14.924;2022-12-05T07:24:35;56.07;;;32.57;;
63499;SDS011;49654;51.142;14.924;2022-12-05T07:27:02;56.83;;;32.60;;
63499;SDS011;49654;51.142;14.924;2022-12-05T07:29:30;54.30;;;30.97;;
63499;SDS011;49654;51.142;14.924;2022-12-05T07:31:57;57.07;;;32.63;;
63499;SDS011;49654;51.142;14.924;2022-12-05T07:34:24;58.47;;;33.40;;
63499;SDS011;49654;51.142;14.924;2022-12-05T07:36:51;56.87;;;33.37;;
63499;SDS011;49654;51.142;14.924;2022-12-05T07:39:19;55.63;;;32.73;;
63499;SDS011;49654;51.142;14.924;2022-12-05T07:41:47;60.83;;;34.13;;
63499;SDS011;49654;51.142;14.924;2022-12-05T07:44:14;60.10;;;33.80;;
63499;SDS011;49654;51.142;14.924;2022-12-05T07:46:41;59.07;;;33.57;;
63499;SDS011;49654;51.142;14.924;2022-12-05T07:49:08;61.27;;;34.37;;
63499;SDS011;49654;51.142;14.924;2022-12-05T07:51:35;55.57;;;33.33;;
63499;SDS011;49654;51.142;14.924;2022-12-05T07:54:03;67.73;;;37.37;;
63499;SDS011;49654;51.142;14.924;2022-12-05T07:56:31;66.43;;;37.17;;
63499;SDS011;49654;51.142;14.924;2022-12-05T07:58:59;62.73;;;36.73;;
63499;SDS011;49654;51.142;14.924;2022-12-05T08:01:27;63.77;;;35.90;;
63499;SDS011;49654;51.142;14.924;2022-12-05T08:03:55;63.77;;;34.50;;
63499;SDS011;49654;51.142;14.924;2022-12-05T08:06:25;62.13;;;35.23;;
63499;SDS011;49654;51.142;14.924;2022-12-05T08:08:53;63.63;;;33.80;;
63499;SDS011;49654;51.142;14.924;2022-12-05T08:11:22;63.27;;;34.67;;
63499;SDS011;49654;51.142;14.924;2022-12-05T08:13:51;58.77;;;33.03;;
63499;SDS011;49654;51.142;14.924;2022-12-05T08:16:20;58.83;;;33.23;;
63499;SDS011;49654;51.142;14.924;2022-12-05T08:18:50;61.87;;;34.17;;
63499;SDS011;49654;51.142;14.924;2022-12-05T08:21:20;64.47;;;34.13;;
63499;SDS011;49654;51.142;14.924;2022-12-05T08:23:47;58.03;;;32.57;;
63499;SDS011;49654;51.142;14.924;2022-12-05T08:26:15;59.43;;;33.97;;
63499;SDS011;49654;51.142;14.924;2022-12-05T08:28:43;65.53;;;36.27;;
63499;SDS011;49654;51.142;14.924;2022-12-05T08:31:11;62.00;;;34.97;;
63499;SDS011;49654;51.142;14.924;2022-12-05T08:33:41;65.07;;;35.57;;
63499;SDS011;49654;51.142;14.924;2022-12-05T08:36:10;64.53;;;34.97;;
63499;SDS011;49654;51.142;14.924;2022-12-05T08:38:40;64.37;;;35.40;;
63499;SDS011;49654;51.142;14.924;2022-12-05T08:41:08;60.97;;;34.90;;
63499;SDS011;49654;51.142;14.924;2022-12-05T08:43:37;64.93;;;35.53;;
63499;SDS011;49654;51.142;14.924;2022-12-05T08:46:04;67.00;;;35.77;;
63499;SDS011;49654;51.142;14.924;2022-12-05T08:48:32;65.37;;;36.20;;
63499;SDS011;49654;51.142;14.924;2022-12-05T08:51:04;64.17;;;36.23;;
63499;SDS011;49654;51.142;14.924;2022-12-05T08:53:33;65.60;;;36.67;;
63499;SDS011;49654;51.142;14.924;2022-12-05T08:56:01;59.53;;;34.60;;
63499;SDS011;49654;51.142;14.924;2022-12-05T08:58:28;64.93;;;36.20;;
63499;SDS011;49654;51.142;14.924;2022-12-05T09:01:02;67.27;;;35.90;;
63499;SDS011;49654;51.142;14.924;2022-12-05T09:03:29;63.87;;;35.53;;
63499;SDS011;49654;51.142;14.924;2022-12-05T09:06:05;64.77;;;35.10;;
63499;SDS011;49654;51.142;14.924;2022-12-05T09:08:33;64.20;;;34.57;;
63499;SDS011;49654;51.142;14.924;2022-12-05T09:11:03;63.50;;;35.27;;
63499;SDS011;49654;51.142;14.924;2022-12-05T09:13:32;64.57;;;34.77;;
63499;SDS011;49654;51.142;14.924;2022-12-05T09:16:03;64.17;;;35.90;;
63499;SDS011;49654;51.142;14.924;2022-12-05T09:18:31;66.68;;;35.17;;
63499;SDS011;49654;51.142;14.924;2022-12-05T09:21:04;65.30;;;36.20;;
63499;SDS011;49654;51.142;14.924;2022-12-05T09:23:32;69.57;;;37.67;;
63499;SDS011;49654;51.142;14.924;2022-12-05T09:25:59;70.73;;;39.50;;
63499;SDS011;49654;51.142;14.924;2022-12-05T09:28:30;73.37;;;39.07;;
63499;SDS011;49654;51.142;14.924;2022-12-05T09:30:58;63.87;;;34.93;;
63499;SDS011;49654;51.142;14.924;2022-12-05T09:33:27;67.90;;;37.03;;
63499;SDS011;49654;51.142;14.924;2022-12-05T09:35:55;69.13;;;37.70;;
63499;SDS011;49654;51.142;14.924;2022-12-05T09:38:23;63.37;;;35.30;;
63499;SDS011;49654;51.142;14.924;2022-12-05T09:40:52;65.70;;;36.17;;
63499;SDS011;49654;51.142;14.924;2022-12-05T09:43:27;63.43;;;36.07;;
63499;SDS011;49654;51.142;14.924;2022-12-05T09:46:00;64.63;;;36.63;;
63499;SDS011;49654;51.142;14.924;2022-12-05T09:48:34;67.13;;;36.37;;
63499;SDS011;49654;51.142;14.924;2022-12-05T09:51:06;73.53;;;39.70;;
63499;SDS011;49654;51.142;14.924;2022-12-05T09:53:37;70.97;;;41.67;;
63499;SDS011;49654;51.142;14.924;2022-12-05T09:56:11;76.43;;;42.00;;
63499;SDS011;49654;51.142;14.924;2022-12-05T09:58:45;70.27;;;40.03;;
63499;SDS011;49654;51.142;14.924;2022-12-05T10:01:21;68.30;;;39.42;;
63499;SDS011;49654;51.142;14.924;2022-12-05T10:04:15;67.27;;;39.03;;
63499;SDS011;49654;51.142;14.924;2022-12-05T10:06:53;65.07;;;36.93;;
63499;SDS011;49654;51.142;14.924;2022-12-05T10:09:41;66.37;;;36.33;;
63499;SDS011;49654;51.142;14.924;2022-12-05T10:12:33;67.00;;;39.67;;
63499;SDS011;49654;51.142;14.924;2022-12-05T10:15:14;70.80;;;40.03;;
63499;SDS011;49654;51.142;14.924;2022-12-05T10:17:46;67.73;;;37.40;;
63499;SDS011;49654;51.142;14.924;2022-12-05T10:22:51;64.77;;;37.87;;
63499;SDS011;49654;51.142;14.924;2022-12-05T10:25:24;66.27;;;38.67;;
63499;SDS011;49654;51.142;14.924;2022-12-05T10:27:53;75.90;;;38.70;;
63499;SDS011;49654;51.142;14.924;2022-12-05T10:30:24;65.60;;;36.90;;
63499;SDS011;49654;51.142;14.924;2022-12-05T10:32:55;79.03;;;53.63;;
63499;SDS011;49654;51.142;14.924;2022-12-05T10:35:24;63.75;;;40.63;;
63499;SDS011;49654;51.142;14.924;2022-12-05T10:37:53;38.50;;;26.02;;
63499;SDS011;49654;51.142;14.924;2022-12-05T10:40:25;43.13;;;26.70;;
63499;SDS011;49654;51.142;14.924;2022-12-05T10:42:58;39.70;;;25.27;;
63499;SDS011;49654;51.142;14.924;2022-12-05T10:45:25;41.78;;;28.27;;
63499;SDS011;49654;51.142;14.924;2022-12-05T10:47:53;24.90;;;17.90;;
63499;SDS011;49654;51.142;14.924;2022-12-05T10:50:23;24.08;;;17.00;;
63499;SDS011;49654;51.142;14.924;2022-12-05T10:52:54;19.13;;;13.82;;
63499;SDS011;49654;51.142;14.924;2022-12-05T10:55:23;15.95;;;12.50;;
63499;SDS011;49654;51.142;14.924;2022-12-05T10:58:07;13.70;;;11.95;;
63499;SDS011;49654;51.142;14.924;2022-12-05T11:00:36;14.05;;;11.90;;
63499;SDS011;49654;51.142;14.924;2022-12-05T11:03:18;12.70;;;11.00;;
63499;SDS011;49654;51.142;14.924;2022-12-05T11:05:50;15.73;;;11.45;;
63499;SDS011;49654;51.142;14.924;2022-12-05T11:08:21;15.07;;;11.88;;
63499;SDS011;49654;51.142;14.924;2022-12-05T11:10:58;14.23;;;11.98;;
63499;SDS011;49654;51.142;14.924;2022-12-05T11:13:28;16.35;;;12.60;;
63499;SDS011;49654;51.142;14.924;2022-12-05T11:15:56;15.65;;;12.18;;
63499;SDS011;49654;51.142;14.924;2022-12-05T11:18:27;15.88;;;12.75;;
63499;SDS011;49654;51.142;14.924;2022-12-05T11:20:57;16.08;;;12.50;;
63499;SDS011;49654;51.142;14.924;2022-12-05T11:23:35;17.65;;;14.13;;
63499;SDS011;49654;51.142;14.924;2022-12-05T11:26:05;19.20;;;14.45;;
63499;SDS011;49654;51.142;14.924;2022-12-05T11:28:43;16.63;;;12.02;;
63499;SDS011;49654;51.142;14.924;2022-12-05T11:31:18;15.98;;;12.45;;
63499;SDS011;49654;51.142;14.924;2022-12-05T11:33:59;14.68;;;11.60;;
63499;SDS011;49654;51.142;14.924;2022-12-05T11:36:34;15.13;;;11.90;;
63499;SDS011;49654;51.142;14.924;2022-12-05T11:39:06;15.70;;;11.17;;
63499;SDS011;49654;51.142;14.924;2022-12-05T11:41:40;17.77;;;11.47;;
63499;SDS011;49654;51.142;14.924;2022-12-05T11:44:21;12.90;;;10.47;;
63499;SDS011;49654;51.142;14.924;2022-12-05T11:46:58;13.30;;;10.80;;
63499;SDS011;49654;51.142;14.924;2022-12-05T11:49:38;12.97;;;10.33;;
63499;SDS011;49654;51.142;14.924;2022-12-05T11:52:18;11.47;;;9.30;;
63499;SDS011;49654;51.142;14.924;2022-12-05T11:54:59;10.90;;;9.07;;
63499;SDS011;49654;51.142;14.924;2022-12-05T11:57:44;11.93;;;9.23;;
63499;SDS011;49654;51.142;14.924;2022-12-05T12:00:25;11.57;;;8.80;;
63499;SDS011;49654;51.142;14.924;2022-12-05T12:06:11;10.57;;;8.30;;
63499;SDS011;49654;51.142;14.924;2022-12-05T12:08:51;10.17;;;8.40;;
63499;SDS011;49654;51.142;14.924;2022-12-05T12:11:30;10.70;;;8.80;;
63499;SDS011;49654;51.142;14.924;2022-12-05T12:14:07;13.10;;;10.37;;
63499;SDS011;49654;51.142;14.924;2022-12-05T12:16:41;12.05;;;9.57;;
63499;SDS011;49654;51.142;14.924;2022-12-05T12:19:23;12.75;;;9.60;;
63499;SDS011;49654;51.142;14.924;2022-12-05T12:22:04;10.93;;;9.37;;
63499;SDS011;49654;51.142;14.924;2022-12-05T12:24:46;11.60;;;9.80;;
63499;SDS011;49654;51.142;14.924;2022-12-05T12:27:33;10.80;;;9.47;;
63499;SDS011;49654;51.142;14.924;2022-12-05T12:30:17;13.00;;;10.05;;
63499;SDS011;49654;51.142;14.924;2022-12-05T12:32:51;12.63;;;10.17;;
63499;SDS011;49654;51.142;14.924;2022-12-05T12:35:26;11.67;;;9.77;;
63499;SDS011;49654;51.142;14.924;2022-12-05T12:38:02;14.43;;;10.70;;
63499;SDS011;49654;51.142;14.924;2022-12-05T12:40:43;14.23;;;11.13;;
63499;SDS011;49654;51.142;14.924;2022-12-05T12:43:17;13.07;;;10.77;;
63499;SDS011;49654;51.142;14.924;2022-12-05T12:46:14;13.70;;;10.97;;
63499;SDS011;49654;51.142;14.924;2022-12-05T12:48:53;14.73;;;11.15;;
63499;SDS011;49654;51.142;14.924;2022-12-05T12:51:31;14.97;;;11.20;;
63499;SDS011;49654;51.142;14.924;2022-12-05T12:54:02;12.97;;;10.63;;
63499;SDS011;49654;51.142;14.924;2022-12-05T12:56:44;12.35;;;9.88;;
63499;SDS011;49654;51.142;14.924;2022-12-05T12:59:22;14.47;;;11.07;;
63499;SDS011;49654;51.142;14.924;2022-12-05T13:02:09;12.43;;;10.60;;
63499;SDS011;49654;51.142;14.924;2022-12-05T13:04:41;14.35;;;9.75;;
63499;SDS011;49654;51.142;14.924;2022-12-05T13:07:15;12.23;;;9.87;;
63499;SDS011;49654;51.142;14.924;2022-12-05T13:09:47;12.67;;;9.87;;
63499;SDS011;49654;51.142;14.924;2022-12-05T13:12:21;12.17;;;9.53;;
63499;SDS011;49654;51.142;14.924;2022-12-05T13:14:52;12.70;;;10.07;;
63499;SDS011;49654;51.142;14.924;2022-12-05T13:17:23;12.53;;;9.17;;
63499;SDS011;49654;51.142;14.924;2022-12-05T13:19:52;11.60;;;9.40;;
63499;SDS011;49654;51.142;14.924;2022-12-05T13:22:22;12.18;;;9.73;;
63499;SDS011;49654;51.142;14.924;2022-12-05T13:24:52;12.20;;;10.02;;
63499;SDS011;49654;51.142;14.924;2022-12-05T13:27:21;13.30;;;9.90;;
63499;SDS011;49654;51.142;14.924;2022-12-05T13:29:52;12.30;;;9.57;;
63499;SDS011;49654;51.142;14.924;2022-12-05T13:32:25;11.50;;;9.30;;
63499;SDS011;49654;51.142;14.924;2022-12-05T13:34:55;12.83;;;10.30;;
63499;SDS011;49654;51.142;14.924;2022-12-05T13:37:24;12.02;;;9.88;;
63499;SDS011;49654;51.142;14.924;2022-12-05T13:40:21;12.47;;;10.33;;
63499;SDS011;49654;51.142;14.924;2022-12-05T13:43:10;12.13;;;10.00;;
63499;SDS011;49654;51.142;14.924;2022-12-05T13:45:39;10.82;;;9.40;;
63499;SDS011;49654;51.142;14.924;2022-12-05T13:48:19;13.00;;;9.93;;
63499;SDS011;49654;51.142;14.924;2022-12-05T13:50:51;12.68;;;10.23;;
63499;SDS011;49654;51.142;14.924;2022-12-05T13:53:24;12.25;;;10.20;;
63499;SDS011;49654;51.142;14.924;2022-12-05T13:55:57;12.53;;;9.97;;
63499;SDS011;49654;51.142;14.924;2022-12-05T13:58:42;13.13;;;9.30;;
63499;SDS011;49654;51.142;14.924;2022-12-05T14:01:40;11.07;;;9.20;;
63499;SDS011;49654;51.142;14.924;2022-12-05T14:07:14;13.10;;;9.98;;
63499;SDS011;49654;51.142;14.924;2022-12-05T14:10:03;12.03;;;10.27;;
63499;SDS011;49654;51.142;14.924;2022-12-05T14:12:45;12.23;;;9.85;;
63499;SDS011;49654;51.142;14.924;2022-12-05T14:15:31;11.25;;;9.65;;
63499;SDS011;49654;51.142;14.924;2022-12-05T14:18:03;12.40;;;9.20;;
63499;SDS011;49654;51.142;14.924;2022-12-05T14:20:46;12.23;;;9.75;;
63499;SDS011;49654;51.142;14.924;2022-12-05T14:23:22;11.45;;;9.20;;
63499;SDS011;49654;51.142;14.924;2022-12-05T14:26:05;12.07;;;9.75;;
63499;SDS011;49654;51.142;14.924;2022-12-05T14:28:48;13.73;;;10.57;;
63499;SDS011;49654;51.142;14.924;2022-12-05T14:31:31;12.80;;;10.32;;
63499;SDS011;49654;51.142;14.924;2022-12-05T14:34:13;13.70;;;10.93;;
63499;SDS011;49654;51.142;14.924;2022-12-05T14:36:50;14.70;;;11.30;;
63499;SDS011;49654;51.142;14.924;2022-12-05T14:39:25;14.93;;;11.50;;
63499;SDS011;49654;51.142;14.924;2022-12-05T14:41:58;14.37;;;11.10;;
63499;SDS011;49654;51.142;14.924;2022-12-05T14:44:28;13.65;;;10.93;;
63499;SDS011;49654;51.142;14.924;2022-12-05T14:46:58;15.93;;;11.23;;
63499;SDS011;49654;51.142;14.924;2022-12-05T14:49:33;13.30;;;11.13;;
63499;SDS011;49654;51.142;14.924;2022-12-05T14:52:18;16.07;;;12.30;;